This is the latest recevied weather packets stored in our database for station/object WC4PEM. If no packets are shown the sender has not sent any weather packets the latest 10 day(s).
| Time | Temp. | Humidity | Pressure | Rain* | Wind** | Luminosity | Snow |
|---|---|---|---|---|---|---|---|
| 1777566707 | 30° C | 59% | 1011.8 hPa | 0 mm | - | - | - |
| 1777566581 | 30.56° C | 56% | 1011.5 hPa | 0 mm | - | - | - |
| 1777566281 | 30° C | 58% | 1011.6 hPa | 0 mm | - | - | - |
| 1777565981 | 29.44° C | 61% | 1011.7 hPa | 0 mm | - | - | - |
| 1777565818 | 30° C | 59% | 1011.8 hPa | 0 mm | - | - | - |
| 1777565681 | 30° C | 59% | 1011.8 hPa | 0 mm | - | - | - |
| 1777565534 | 30° C | 60% | 1011.9 hPa | 0 mm | - | - | - |
| 1777565381 | 30° C | 60% | 1011.9 hPa | 0 mm | - | - | - |
| 1777565081 | 30° C | 58% | 1011.9 hPa | 0 mm | - | - | - |
| 1777564894 | 29.44° C | 61% | 1011.9 hPa | 0 mm | - | - | - |
| 1777564781 | 29.44° C | 61% | 1011.9 hPa | 0 mm | - | - | - |
| 1777564675 | 28.89° C | 62% | 1011.9 hPa | 0 mm | - | - | - |
| 1777564642 | 29.44° C | 60% | 1011.8 hPa | 0 mm | - | - | - |
| 1777564481 | 29.44° C | 60% | 1011.8 hPa | 0 mm | - | - | - |
| 1777564181 | 28.89° C | 62% | 1011.9 hPa | 0 mm | - | - | - |
| 1777564042 | 29.44° C | 60% | 1012 hPa | 0 mm | - | - | - |
| 1777563881 | 28.89° C | 61% | 1011.8 hPa | 0 mm | - | - | - |
| 1777563581 | 29.44° C | 60% | 1011.9 hPa | 0 mm | - | - | - |
| 1777563430 | 29.44° C | 60% | 1012 hPa | 0 mm | - | - | - |
| 1777563281 | 29.44° C | 60% | 1012 hPa | 0 mm | - | - | - |
| 1777562981 | 28.89° C | 63% | 1012 hPa | 0 mm | - | - | - |
| 1777562845 | 28.33° C | 64% | 1012 hPa | 0 mm | - | - | - |
| 1777562681 | 28.33° C | 64% | 1012 hPa | 0 mm | - | - | - |
| 1777562537 | 28.33° C | 69% | 1011.9 hPa | 0 mm | - | - | - |
| 1777562381 | 28.33° C | 69% | 1011.9 hPa | 0 mm | - | - | - |
* Rain latest hour (hover to see other rain measurements)
** Current wind speed in m/s (hover to see current wind gust speed)